Flight Track Log - Related Links

Times and Time Zones

All times are in EST time to prevent confusion due to time zone crossing. See the SWA3213 flight status page for this flight to view local times or setup timezone preferences in your user account.


Time Position Orientation Groundspeed Altitude Reporting Facility
EST Latitude Longitude Course Direction KTS MPH feet Rate Location/Type
Fri 09:00:38 PM 39.1667 -76.7333 180° South 176 203 2,000  Level Potomac TRACON
Fri 09:01:38 PM 39.1167 -76.7333 180° South 273 314 4,800 2,068 Climbing Potomac TRACON
Fri 09:03:35 PM 38.9964 -76.6333 147° Southeast 282 325 8,100 2,034 Climbing Washington Center
Fri 09:04:35 PM 38.9219 -76.5628 144° Southeast 288 331 10,800 2,750 Climbing Washington Center
Fri 09:05:35 PM 38.8264 -76.5322 166° South 331 381 13,600 1,650 Climbing Washington Center
Fri 09:06:35 PM 38.7256 -76.6056 210° Southwest 343 395 14,100 1,850 Climbing Washington Center
Fri 09:07:35 PM 38.6269 -76.6786 210° Southwest 378 435 17,300 2,800 Climbing Washington Center
Fri 09:08:35 PM 38.5161 -76.7219 197° South 400 460 19,700 2,050 Climbing Washington Center
Fri 09:09:35 PM 38.3850 -76.7017 173° South 437 503 21,400 1,950 Climbing Washington Center
Fri 09:10:35 PM 38.2453 -76.6836 174° South 471 542 23,600 2,100 Climbing Washington Center
Fri 09:11:35 PM 38.1039 -76.6658 174° South 500 575 25,600 1,850 Climbing Washington Center
Fri 09:12:35 PM 37.9558 -76.6478 175° South 522 601 27,300 1,600 Climbing Washington Center
Fri 09:13:35 PM 37.8056 -76.6642 185° South 534 615 28,800 1,800 Climbing Washington Center
Fri 09:14:35 PM 37.6572 -76.6831 186° South 539 620 30,900 2,000 Climbing Washington Center
Fri 09:15:35 PM 37.5089 -76.7019 186° South 539 620 32,800 1,934 Climbing Washington Center
Fri 09:16:36 PM 37.3647 -76.7417 192° South 539 620 34,800 1,950 Climbing Washington Center
Fri 09:17:35 PM 37.2306 -76.7969 198° South 525 604 36,700 1,613 Climbing Washington Center
Fri 09:18:35 PM 37.1008 -76.8547 200° South 514 592 38,000 650 Climbing Washington Center
Fri 09:19:35 PM 36.9728 -76.9100 199° South 501 577 38,000  Level Washington Center
Fri 09:20:35 PM 36.8450 -76.9622 198° South 496 571 38,000  Level Washington Center
Fri 09:21:35 PM 36.7131 -77.0144 198° South 496 571 38,000  Level Washington Center
Fri 09:22:35 PM 36.5850 -77.0689 199° South 491 565 38,000  Level Washington Center
Fri 09:23:35 PM 36.4592 -77.1208 198° South 486 559 38,000  Level Washington Center
Fri 09:24:35 PM 36.3314 -77.1725 198° South 486 559 38,000  Level Washington Center
Fri 09:25:35 PM 36.1992 -77.2239 197° South 486 559 38,000  Level Washington Center
Fri 09:26:35 PM 36.0775 -77.2753 199° South 479 551 38,000  Level Washington Center
Fri 09:27:35 PM 35.9472 -77.3289 198° South 479 551 38,000  Level Washington Center
Fri 09:28:35 PM 35.8172 -77.3775 197° South 486 559 38,000  Level Washington Center
Fri 09:29:35 PM 35.6872 -77.4308 198° South 486 559 38,000  Level Washington Center
Fri 09:30:35 PM 35.5592 -77.4814 198° South 486 559 38,000  Level Washington Center
Fri 09:31:35 PM 35.4289 -77.5319 198° South 486 559 38,000  Level Washington Center
Fri 09:32:35 PM 35.3169 -77.6131 211° Southwest 478 550 38,000  Level Washington Center
Fri 09:33:35 PM 35.2214 -77.7125 220° Southwest 461 531 38,000  Level Washington Center
Fri 09:34:35 PM 35.1256 -77.8117 220° Southwest 456 525 38,000  Level Washington Center
Fri 09:35:35 PM 35.0297 -77.9103 220° Southwest 456 525 38,000  Level Washington Center
Fri 09:36:35 PM 34.9342 -78.0064 220° Southwest 456 525 38,000  Level Washington Center
Fri 09:37:35 PM 34.8403 -78.1047 221° Southwest 461 531 38,000  Level Washington Center
Fri 09:38:35 PM 34.7483 -78.2031 221° Southwest 456 525 38,000  Level Washington Center
Fri 09:40:12 PM 34.5956 -78.3578 220° Southwest 444 511 38,000  Level Jacksonville Center
Fri 09:41:12 PM 34.4947 -78.4539 218° Southwest 444 511 38,000  Level Jacksonville Center
Fri 09:42:12 PM 34.4122 -78.5436 222° Southwest 439 505 38,000  Level Jacksonville Center
Fri 09:43:12 PM 34.3156 -78.6389 219° Southwest 446 513 38,000  Level Jacksonville Center
Fri 09:44:12 PM 34.2228 -78.7339 220° Southwest 446 513 38,000  Level Jacksonville Center
Fri 09:45:12 PM 34.1297 -78.8261 219° Southwest 446 513 38,000  Level Jacksonville Center
Fri 09:46:12 PM 34.0328 -78.9233 220° Southwest 446 513 38,000  Level Jacksonville Center
Fri 09:47:12 PM 33.9375 -79.0153 219° Southwest 446 513 38,000  Level Jacksonville Center
Fri 09:48:12 PM 33.8425 -79.1119 220° Southwest 446 513 38,000  Level Jacksonville Center
Fri 09:49:12 PM 33.7492 -79.2033 219° Southwest 446 513 38,000  Level Jacksonville Center
Fri 09:50:12 PM 33.6578 -79.2944 220° Southwest 440 506 38,000  Level Jacksonville Center
Fri 09:51:12 PM 33.5625 -79.3906 220° Southwest 440 506 38,000  Level Jacksonville Center
Fri 09:52:12 PM 33.4628 -79.4842 218° Southwest 445 512 38,000  Level Jacksonville Center
Fri 09:53:12 PM 33.3672 -79.5775 219° Southwest 445 512 38,000  Level Jacksonville Center
Fri 09:54:12 PM 33.2650 -79.6656 216° Southwest 450 518 38,000  Level Jacksonville Center
Fri 09:55:12 PM 33.1586 -79.7514 214° Southwest 456 525 38,000  Level Jacksonville Center
Fri 09:56:12 PM 33.0583 -79.8292 213° Southwest 456 525 38,000  Level Jacksonville Center
Fri 09:57:12 PM 32.9519 -79.9144 214° Southwest 456 525 38,000  Level Jacksonville Center
Fri 09:58:12 PM 32.8494 -79.9969 214° Southwest 456 525 38,000  Level Jacksonville Center
Fri 09:59:12 PM 32.7367 -80.0872 214° Southwest 456 525 38,000  Level Jacksonville Center
Fri 10:00:12 PM 32.6319 -80.1669 213° Southwest 456 525 38,000  Level Jacksonville Center
Fri 10:01:12 PM 32.5292 -80.2464 213° Southwest 456 525 38,000  Level Jacksonville Center
Fri 10:02:12 PM 32.4244 -80.3306 214° Southwest 456 525 38,000  Level Jacksonville Center
Fri 10:03:12 PM 32.3239 -80.4094 214° Southwest 451 519 38,000  Level Jacksonville Center
Fri 10:04:12 PM 32.2211 -80.4908 214° Southwest 445 512 38,000  Level Jacksonville Center
Fri 10:05:12 PM 32.1244 -80.5694 215° Southwest 435 501 38,000  Level Jacksonville Center
Fri 10:06:12 PM 32.0336 -80.6381 213° Southwest 434 499 38,000  Level Jacksonville Center
Fri 10:07:12 PM 31.9478 -80.7428 226° Southwest 416 479 38,000  Level Jacksonville Center
Fri 10:08:12 PM 31.8786 -80.8472 232° Southwest 409 471 38,000  Level Jacksonville Center
Fri 10:09:12 PM 31.8089 -80.9344 227° Southwest 409 471 38,000  Level Jacksonville Center
Fri 10:10:12 PM 31.6675 -80.9667 191° South 437 503 38,000  Level Jacksonville Center
Fri 10:11:12 PM 31.5489 -80.9886 189° South 475 547 38,000  Level Jacksonville Center
Fri 10:12:12 PM 31.4072 -81.0158 189° South 481 554 38,000  Level Jacksonville Center
Fri 10:13:12 PM 31.2928 -81.0400 190° South 481 554 38,000  Level Jacksonville Center
Fri 10:14:12 PM 31.1636 -81.0619 188° South 481 554 38,000  Level Jacksonville Center
Fri 10:15:12 PM 31.0367 -81.0839 188° South 476 548 38,000  Level Jacksonville Center
Fri 10:16:12 PM 30.9094 -81.1056 188° South 466 536 38,000 -450 Level Jacksonville Center
Fri 10:17:12 PM 30.7867 -81.1272 189° South 461 531 37,100 -1,800 Descending Jacksonville Center
Fri 10:18:12 PM 30.6639 -81.1514 190° South 461 531 34,400 -1,550 Descending Jacksonville Center
Fri 10:19:12 PM 30.5281 -81.1539 181° South 471 542 34,000 -350 Descending Jacksonville Center
Fri 10:20:12 PM 30.3944 -81.1489 178° South 477 549 33,700 -650 Descending Jacksonville Center
Fri 10:21:12 PM 30.2567 -81.1419 178° South 482 555 32,700 -1,000 Descending Jacksonville Center
Fri 10:22:12 PM 30.1189 -81.1397 179° South 487 560 31,700 -950 Descending Jacksonville Center
Fri 10:23:12 PM 29.9831 -81.1372 179° South 493 567 30,800 -1,600 Descending Jacksonville Center
Fri 10:24:12 PM 29.8453 -81.1325 178° South 493 567 28,500 -2,450 Descending Jacksonville Center
Fri 10:25:12 PM 29.7136 -81.1278 178° South 487 560 25,900 -2,550 Descending Jacksonville Center
Fri 10:26:12 PM 29.5861 -81.1231 178° South 475 547 23,400 -2,350 Descending Jacksonville Center
Fri 10:27:12 PM 29.4608 -81.1253 181° South 461 531 21,200 -2,300 Descending Jacksonville Center
Fri 10:28:12 PM 29.3356 -81.1156 176° South 456 525 18,800 -2,450 Descending Jacksonville Center
Fri 10:29:12 PM 29.2122 -81.1058 176° South 456 525 16,300 -2,600 Descending Jacksonville Center
Fri 10:30:12 PM 29.0933 -81.1008 178° South 451 519 13,600 -2,168 Descending Jacksonville Center
Fri 10:31:11 PM 28.9783 -81.0864 174° South 433 498 12,000 -1,311 Descending Jacksonville Center
Fri 10:32:11 PM 28.8739 -81.0883 181° South 404 465 11,000 -950 Descending Jacksonville Center
Fri 10:33:11 PM 28.7742 -81.1089 190° South 379 436 10,100 -942 Descending Jacksonville Center
Fri 10:34:12 PM 28.6908 -81.1269 191° South 344 396 9,100 -545 Descending Jacksonville Center
Fri 10:35:12 PM 28.6097 -81.1450 191° South 316 364 9,000 -150 Descending Jacksonville Center
Fri 10:36:12 PM 28.5347 -81.1606 190° South 292 336 8,800 -650 Descending Jacksonville Center
Fri 10:37:12 PM 28.4681 -81.1733 190° South 272 313 7,700 -1,200 Descending Jacksonville Center
Fri 10:38:12 PM 28.4017 -81.1889 192° South 251 289 6,400 -1,173 Descending Jacksonville Center
Fri 10:40:00 PM 28.4294 -81.3090 180° South  Level Estimated
Fri 10:42:19 PM 28.3333 -81.3000 336° Northwest 144 166 1,700  Level Orlando TRACON
Fri 10:44:12 PM 28.3833 -81.3000 360° North 126 145 500 -637 Descending Orlando TRACON
Fri 10:46:00 PM 28.4167 -81.3000 336° Northwest  Level FlightAware Approximate
Fri 10:47:00 PM 28.4294 -81.3090 336° Northwest  Level Estimated

Login

Don't have an account? Register now (free) for customized features, flight alerts, and more!